Huvudsida
METAR-TAF:

METAR-TAF

Flygplatser :

Luleå Airport

Luleå, Sverige

latitud: 65-33N, longitud: 022-08E, höjd: 17 m

Aktuellt väderrapport

Denna rapport gjordes för 16 minuter sedan, klockan 15:20 UTC
Vind 2 kt varierande vindriktning
Temperatur 7°C
Fuktighet 87%
Tryck 1016 hPa
Sikt 10 km eller mer
Mulet på en höjd av 4900 ft

METAR: ESPA 201520Z VRB02KT 9999 OVC049 07/05 Q1016

Tid: 17:36 (15:36 UTC)

Väderprognos

Denna rapport gjordes för 1 timme och 6 minuter sedan, klockan 14:30 UTC
Prognos gäller från 20 kl. 15 UTC till 20 kl. 19 UTC
Vind 2 kt från väst/sydväst
Sikt 10 km eller mer
Inga moln under 1 500 m eller inga cumulonimbus
Sannolikhet 40%
från 20 kl. 17 UTC till 20 kl. 19 UTC
Sikt: 1400 m
dimbankar

TAF: ESPA 201430Z 2015/2019 25002KT CAVOK PROB40 2017/2019 1400 BCFG

Aktuella väderrapporter och prognoser från 4000 flygplatser (METAR- och TAF-rapporter).

De tillgängliga stationerna syns som gula och röda prickar på kartan.

För musen över prickarna för att se namnen på stationerna.

Klicka sedan för att få väderrapporter och prognoser.

För att ändra kartan: Klicka på de gröna knapparna med ett svart kors på för att zooma in; den gröna knappen med ett streck på för att zooma ut; eller på de gröna pilarna för angränsande kartor.


METAR-TAF: